sensor_id;sensor_type;location;lat;lon;timestamp;P1;durP1;ratioP1;P2;durP2;ratioP2
35677;SDS011;21791;42.828;74.582;2023-03-11T00:01:00;3.90;;;1.15;;
35677;SDS011;21791;42.828;74.582;2023-03-11T00:03:27;4.10;;;1.00;;
35677;SDS011;21791;42.828;74.582;2023-03-11T00:05:54;2.05;;;0.98;;
35677;SDS011;21791;42.828;74.582;2023-03-11T00:08:24;3.30;;;0.80;;
35677;SDS011;21791;42.828;74.582;2023-03-11T00:10:52;2.85;;;0.90;;
35677;SDS011;21791;42.828;74.582;2023-03-11T00:13:19;2.65;;;1.20;;
35677;SDS011;21791;42.828;74.582;2023-03-11T00:15:50;1.35;;;0.85;;
35677;SDS011;21791;42.828;74.582;2023-03-11T00:18:22;3.08;;;1.10;;
35677;SDS011;21791;42.828;74.582;2023-03-11T00:20:52;2.88;;;1.00;;
35677;SDS011;21791;42.828;74.582;2023-03-11T00:23:20;2.17;;;0.98;;
35677;SDS011;21791;42.828;74.582;2023-03-11T00:25:47;3.67;;;0.90;;
35677;SDS011;21791;42.828;74.582;2023-03-11T00:28:14;1.55;;;0.70;;
35677;SDS011;21791;42.828;74.582;2023-03-11T00:30:41;1.73;;;0.75;;
35677;SDS011;21791;42.828;74.582;2023-03-11T00:33:10;1.80;;;0.82;;
35677;SDS011;21791;42.828;74.582;2023-03-11T00:35:38;2.60;;;1.00;;
35677;SDS011;21791;42.828;74.582;2023-03-11T00:38:06;2.10;;;0.90;;
35677;SDS011;21791;42.828;74.582;2023-03-11T00:40:34;3.78;;;1.05;;
35677;SDS011;21791;42.828;74.582;2023-03-11T00:43:01;2.22;;;0.75;;
35677;SDS011;21791;42.828;74.582;2023-03-11T00:45:28;3.03;;;1.05;;
35677;SDS011;21791;42.828;74.582;2023-03-11T00:47:55;3.58;;;1.05;;
35677;SDS011;21791;42.828;74.582;2023-03-11T00:50:23;1.73;;;0.90;;
35677;SDS011;21791;42.828;74.582;2023-03-11T00:52:57;4.40;;;1.45;;
35677;SDS011;21791;42.828;74.582;2023-03-11T00:55:25;3.63;;;0.82;;
35677;SDS011;21791;42.828;74.582;2023-03-11T00:57:55;4.80;;;1.50;;
35677;SDS011;21791;42.828;74.582;2023-03-11T01:00:24;3.95;;;1.40;;
35677;SDS011;21791;42.828;74.582;2023-03-11T01:02:53;2.95;;;0.90;;
35677;SDS011;21791;42.828;74.582;2023-03-11T01:05:22;4.15;;;1.30;;
35677;SDS011;21791;42.828;74.582;2023-03-11T01:07:50;4.38;;;0.80;;
35677;SDS011;21791;42.828;74.582;2023-03-11T01:10:17;1.98;;;0.82;;
35677;SDS011;21791;42.828;74.582;2023-03-11T01:12:43;2.25;;;1.10;;
35677;SDS011;21791;42.828;74.582;2023-03-11T01:15:21;4.30;;;1.20;;
35677;SDS011;21791;42.828;74.582;2023-03-11T01:17:49;3.75;;;1.45;;
35677;SDS011;21791;42.828;74.582;2023-03-11T01:20:16;3.67;;;1.20;;
35677;SDS011;21791;42.828;74.582;2023-03-11T01:22:43;2.58;;;1.17;;
35677;SDS011;21791;42.828;74.582;2023-03-11T01:25:11;2.33;;;0.98;;
35677;SDS011;21791;42.828;74.582;2023-03-11T01:27:39;2.00;;;1.25;;
35677;SDS011;21791;42.828;74.582;2023-03-11T01:30:06;1.92;;;1.00;;
35677;SDS011;21791;42.828;74.582;2023-03-11T01:32:34;2.78;;;1.05;;
35677;SDS011;21791;42.828;74.582;2023-03-11T01:35:01;2.90;;;1.08;;
35677;SDS011;21791;42.828;74.582;2023-03-11T01:37:28;3.42;;;1.30;;
35677;SDS011;21791;42.828;74.582;2023-03-11T01:39:54;4.85;;;1.08;;
35677;SDS011;21791;42.828;74.582;2023-03-11T01:42:20;9.18;;;1.60;;
35677;SDS011;21791;42.828;74.582;2023-03-11T01:44:47;5.40;;;1.52;;
35677;SDS011;21791;42.828;74.582;2023-03-11T01:47:30;8.43;;;1.60;;
35677;SDS011;21791;42.828;74.582;2023-03-11T01:50:02;8.85;;;2.13;;
35677;SDS011;21791;42.828;74.582;2023-03-11T01:52:30;7.85;;;1.70;;
35677;SDS011;21791;42.828;74.582;2023-03-11T01:54:56;6.03;;;1.88;;
35677;SDS011;21791;42.828;74.582;2023-03-11T01:57:23;6.50;;;1.83;;
35677;SDS011;21791;42.828;74.582;2023-03-11T01:59:51;2.70;;;1.17;;
35677;SDS011;21791;42.828;74.582;2023-03-11T02:02:33;6.28;;;1.58;;
35677;SDS011;21791;42.828;74.582;2023-03-11T02:05:06;5.60;;;1.50;;
35677;SDS011;21791;42.828;74.582;2023-03-11T02:07:34;8.20;;;1.88;;
35677;SDS011;21791;42.828;74.582;2023-03-11T02:10:02;15.05;;;2.67;;
35677;SDS011;21791;42.828;74.582;2023-03-11T02:12:33;8.07;;;2.05;;
35677;SDS011;21791;42.828;74.582;2023-03-11T02:15:01;8.13;;;1.98;;
35677;SDS011;21791;42.828;74.582;2023-03-11T02:17:29;5.35;;;1.75;;
35677;SDS011;21791;42.828;74.582;2023-03-11T02:22:41;6.63;;;1.70;;
35677;SDS011;21791;42.828;74.582;2023-03-11T02:27:44;4.13;;;1.60;;
35677;SDS011;21791;42.828;74.582;2023-03-11T02:30:13;4.45;;;1.70;;
35677;SDS011;21791;42.828;74.582;2023-03-11T02:32:42;8.18;;;1.90;;
35677;SDS011;21791;42.828;74.582;2023-03-11T02:35:13;4.15;;;1.58;;
35677;SDS011;21791;42.828;74.582;2023-03-11T02:37:44;4.43;;;1.73;;
35677;SDS011;21791;42.828;74.582;2023-03-11T02:41:01;6.82;;;1.65;;
35677;SDS011;21791;42.828;74.582;2023-03-11T02:43:09;9.02;;;2.97;;
35677;SDS011;21791;42.828;74.582;2023-03-11T02:45:38;9.30;;;2.53;;
35677;SDS011;21791;42.828;74.582;2023-03-11T02:48:07;5.07;;;2.60;;
35677;SDS011;21791;42.828;74.582;2023-03-11T02:50:36;5.80;;;2.30;;
35677;SDS011;21791;42.828;74.582;2023-03-11T02:53:03;5.82;;;2.95;;
35677;SDS011;21791;42.828;74.582;2023-03-11T02:55:30;9.68;;;3.53;;
35677;SDS011;21791;42.828;74.582;2023-03-11T02:57:58;14.13;;;3.63;;
35677;SDS011;21791;42.828;74.582;2023-03-11T03:00:24;8.35;;;2.70;;
35677;SDS011;21791;42.828;74.582;2023-03-11T03:02:51;16.55;;;3.45;;
35677;SDS011;21791;42.828;74.582;2023-03-11T03:05:19;12.40;;;3.58;;
35677;SDS011;21791;42.828;74.582;2023-03-11T03:07:46;10.82;;;2.47;;
35677;SDS011;21791;42.828;74.582;2023-03-11T03:10:13;9.50;;;2.63;;
35677;SDS011;21791;42.828;74.582;2023-03-11T03:12:41;12.63;;;3.13;;
35677;SDS011;21791;42.828;74.582;2023-03-11T03:15:08;18.83;;;4.75;;
35677;SDS011;21791;42.828;74.582;2023-03-11T03:17:35;9.35;;;3.63;;
35677;SDS011;21791;42.828;74.582;2023-03-11T03:20:02;8.90;;;3.33;;
35677;SDS011;21791;42.828;74.582;2023-03-11T03:22:32;9.35;;;3.08;;
35677;SDS011;21791;42.828;74.582;2023-03-11T03:24:58;9.88;;;2.47;;
35677;SDS011;21791;42.828;74.582;2023-03-11T03:27:25;7.25;;;2.58;;
35677;SDS011;21791;42.828;74.582;2023-03-11T03:29:51;8.32;;;2.50;;
35677;SDS011;21791;42.828;74.582;2023-03-11T03:32:18;10.27;;;2.50;;
35677;SDS011;21791;42.828;74.582;2023-03-11T03:34:44;8.10;;;3.92;;
35677;SDS011;21791;42.828;74.582;2023-03-11T03:37:11;4.78;;;2.10;;
35677;SDS011;21791;42.828;74.582;2023-03-11T03:39:37;12.05;;;3.60;;
35677;SDS011;21791;42.828;74.582;2023-03-11T03:42:04;10.93;;;2.58;;
35677;SDS011;21791;42.828;74.582;2023-03-11T03:44:31;12.07;;;2.13;;
35677;SDS011;21791;42.828;74.582;2023-03-11T03:46:58;7.43;;;2.38;;
35677;SDS011;21791;42.828;74.582;2023-03-11T03:49:24;8.52;;;1.65;;
35677;SDS011;21791;42.828;74.582;2023-03-11T03:51:53;5.00;;;1.55;;
35677;SDS011;21791;42.828;74.582;2023-03-11T03:54:19;7.95;;;1.42;;
35677;SDS011;21791;42.828;74.582;2023-03-11T03:56:46;8.43;;;2.25;;
35677;SDS011;21791;42.828;74.582;2023-03-11T03:59:12;6.43;;;2.28;;
35677;SDS011;21791;42.828;74.582;2023-03-11T04:01:38;6.75;;;2.30;;
35677;SDS011;21791;42.828;74.582;2023-03-11T04:04:05;4.93;;;2.10;;
35677;SDS011;21791;42.828;74.582;2023-03-11T04:06:32;7.22;;;2.30;;
35677;SDS011;21791;42.828;74.582;2023-03-11T04:08:59;11.85;;;2.58;;
35677;SDS011;21791;42.828;74.582;2023-03-11T04:11:25;18.45;;;3.50;;
35677;SDS011;21791;42.828;74.582;2023-03-11T04:13:52;6.00;;;2.08;;
35677;SDS011;21791;42.828;74.582;2023-03-11T04:16:20;8.52;;;2.35;;
35677;SDS011;21791;42.828;74.582;2023-03-11T04:18:48;14.23;;;3.17;;
35677;SDS011;21791;42.828;74.582;2023-03-11T04:21:15;9.38;;;2.40;;
35677;SDS011;21791;42.828;74.582;2023-03-11T04:23:41;8.50;;;2.58;;
35677;SDS011;21791;42.828;74.582;2023-03-11T04:26:08;6.55;;;2.17;;
35677;SDS011;21791;42.828;74.582;2023-03-11T04:28:35;12.43;;;2.58;;
35677;SDS011;21791;42.828;74.582;2023-03-11T04:31:01;8.23;;;2.20;;
35677;SDS011;21791;42.828;74.582;2023-03-11T04:33:28;7.22;;;2.20;;
35677;SDS011;21791;42.828;74.582;2023-03-11T04:35:54;9.40;;;2.83;;
35677;SDS011;21791;42.828;74.582;2023-03-11T04:38:21;4.40;;;1.80;;
35677;SDS011;21791;42.828;74.582;2023-03-11T04:40:47;5.38;;;2.35;;
35677;SDS011;21791;42.828;74.582;2023-03-11T04:43:14;9.40;;;3.10;;
35677;SDS011;21791;42.828;74.582;2023-03-11T04:45:41;9.95;;;2.80;;
35677;SDS011;21791;42.828;74.582;2023-03-11T04:48:08;9.55;;;2.80;;
35677;SDS011;21791;42.828;74.582;2023-03-11T04:50:34;7.05;;;2.75;;
35677;SDS011;21791;42.828;74.582;2023-03-11T04:55:49;10.88;;;3.30;;
35677;SDS011;21791;42.828;74.582;2023-03-11T04:58:16;6.65;;;3.10;;
35677;SDS011;21791;42.828;74.582;2023-03-11T05:00:43;7.88;;;3.50;;
35677;SDS011;21791;42.828;74.582;2023-03-11T05:03:10;11.30;;;3.58;;
35677;SDS011;21791;42.828;74.582;2023-03-11T05:05:36;13.90;;;3.20;;
35677;SDS011;21791;42.828;74.582;2023-03-11T05:08:03;8.68;;;3.65;;
35677;SDS011;21791;42.828;74.582;2023-03-11T05:10:30;8.63;;;3.17;;
35677;SDS011;21791;42.828;74.582;2023-03-11T05:12:56;11.77;;;3.53;;
35677;SDS011;21791;42.828;74.582;2023-03-11T05:15:23;15.45;;;4.00;;
35677;SDS011;21791;42.828;74.582;2023-03-11T05:17:49;10.38;;;3.60;;
35677;SDS011;21791;42.828;74.582;2023-03-11T05:20:16;10.55;;;3.22;;
35677;SDS011;21791;42.828;74.582;2023-03-11T05:22:43;20.02;;;4.07;;
35677;SDS011;21791;42.828;74.582;2023-03-11T05:25:11;8.57;;;3.22;;
35677;SDS011;21791;42.828;74.582;2023-03-11T05:27:37;15.10;;;4.07;;
35677;SDS011;21791;42.828;74.582;2023-03-11T05:30:04;15.25;;;5.00;;
35677;SDS011;21791;42.828;74.582;2023-03-11T05:32:32;9.30;;;4.05;;
35677;SDS011;21791;42.828;74.582;2023-03-11T05:34:58;16.35;;;5.05;;
35677;SDS011;21791;42.828;74.582;2023-03-11T05:37:25;8.90;;;3.70;;
35677;SDS011;21791;42.828;74.582;2023-03-11T05:39:52;10.73;;;3.20;;
35677;SDS011;21791;42.828;74.582;2023-03-11T05:42:19;10.10;;;3.78;;
35677;SDS011;21791;42.828;74.582;2023-03-11T05:44:45;12.13;;;3.70;;
35677;SDS011;21791;42.828;74.582;2023-03-11T05:47:12;20.42;;;4.35;;
35677;SDS011;21791;42.828;74.582;2023-03-11T05:49:38;12.60;;;3.47;;
35677;SDS011;21791;42.828;74.582;2023-03-11T05:52:05;12.00;;;3.30;;
35677;SDS011;21791;42.828;74.582;2023-03-11T05:54:32;23.27;;;4.32;;
35677;SDS011;21791;42.828;74.582;2023-03-11T05:56:58;17.80;;;3.75;;
35677;SDS011;21791;42.828;74.582;2023-03-11T05:59:25;10.27;;;3.95;;
35677;SDS011;21791;42.828;74.582;2023-03-11T06:01:51;10.40;;;3.55;;
35677;SDS011;21791;42.828;74.582;2023-03-11T06:04:18;11.88;;;3.38;;
35677;SDS011;21791;42.828;74.582;2023-03-11T06:06:44;10.52;;;3.72;;
35677;SDS011;21791;42.828;74.582;2023-03-11T06:09:11;10.98;;;4.00;;
35677;SDS011;21791;42.828;74.582;2023-03-11T06:11:39;9.80;;;3.80;;
35677;SDS011;21791;42.828;74.582;2023-03-11T06:14:06;10.32;;;4.57;;
35677;SDS011;21791;42.828;74.582;2023-03-11T06:16:36;14.50;;;3.90;;
35677;SDS011;21791;42.828;74.582;2023-03-11T06:19:02;9.15;;;4.30;;
35677;SDS011;21791;42.828;74.582;2023-03-11T06:21:29;9.13;;;4.50;;
35677;SDS011;21791;42.828;74.582;2023-03-11T06:23:55;13.00;;;5.40;;
35677;SDS011;21791;42.828;74.582;2023-03-11T06:26:22;10.48;;;4.20;;
35677;SDS011;21791;42.828;74.582;2023-03-11T06:28:49;12.73;;;3.83;;
35677;SDS011;21791;42.828;74.582;2023-03-11T06:31:20;8.48;;;3.47;;
35677;SDS011;21791;42.828;74.582;2023-03-11T06:33:51;16.80;;;4.00;;
35677;SDS011;21791;42.828;74.582;2023-03-11T06:36:21;12.73;;;4.45;;
35677;SDS011;21791;42.828;74.582;2023-03-11T06:38:49;12.88;;;4.20;;
35677;SDS011;21791;42.828;74.582;2023-03-11T06:41:17;18.50;;;4.50;;
35677;SDS011;21791;42.828;74.582;2023-03-11T06:43:43;10.68;;;4.40;;
35677;SDS011;21791;42.828;74.582;2023-03-11T06:46:19;12.27;;;4.65;;
35677;SDS011;21791;42.828;74.582;2023-03-11T06:48:47;8.55;;;3.97;;
35677;SDS011;21791;42.828;74.582;2023-03-11T06:51:17;7.85;;;3.65;;
35677;SDS011;21791;42.828;74.582;2023-03-11T06:53:48;12.30;;;4.65;;
35677;SDS011;21791;42.828;74.582;2023-03-11T06:56:17;11.70;;;4.43;;
35677;SDS011;21791;42.828;74.582;2023-03-11T06:58:45;19.15;;;4.82;;
35677;SDS011;21791;42.828;74.582;2023-03-11T07:01:13;13.20;;;4.22;;
35677;SDS011;21791;42.828;74.582;2023-03-11T07:03:41;15.35;;;4.28;;
35677;SDS011;21791;42.828;74.582;2023-03-11T07:06:11;12.18;;;3.40;;
35677;SDS011;21791;42.828;74.582;2023-03-11T07:08:39;9.65;;;3.40;;
35677;SDS011;21791;42.828;74.582;2023-03-11T07:11:07;7.55;;;2.92;;
35677;SDS011;21791;42.828;74.582;2023-03-11T07:13:37;17.23;;;3.90;;
35677;SDS011;21791;42.828;74.582;2023-03-11T07:16:04;9.05;;;3.35;;
35677;SDS011;21791;42.828;74.582;2023-03-11T07:18:33;19.65;;;4.32;;
35677;SDS011;21791;42.828;74.582;2023-03-11T07:21:01;13.50;;;4.38;;
35677;SDS011;21791;42.828;74.582;2023-03-11T07:23:29;10.35;;;3.20;;
35677;SDS011;21791;42.828;74.582;2023-03-11T07:25:59;10.18;;;3.92;;
35677;SDS011;21791;42.828;74.582;2023-03-11T07:28:26;14.13;;;3.80;;
35677;SDS011;21791;42.828;74.582;2023-03-11T07:30:54;15.27;;;4.55;;
35677;SDS011;21791;42.828;74.582;2023-03-11T07:33:21;11.18;;;4.30;;
35677;SDS011;21791;42.828;74.582;2023-03-11T07:35:50;10.90;;;4.53;;
35677;SDS011;21791;42.828;74.582;2023-03-11T07:38:17;12.10;;;5.25;;
35677;SDS011;21791;42.828;74.582;2023-03-11T07:40:44;13.60;;;3.92;;
35677;SDS011;21791;42.828;74.582;2023-03-11T07:43:11;17.23;;;4.30;;
35677;SDS011;21791;42.828;74.582;2023-03-11T07:45:38;26.35;;;5.72;;
35677;SDS011;21791;42.828;74.582;2023-03-11T07:48:04;17.17;;;4.40;;
35677;SDS011;21791;42.828;74.582;2023-03-11T07:50:31;8.77;;;3.85;;
35677;SDS011;21791;42.828;74.582;2023-03-11T07:52:57;26.63;;;5.15;;
35677;SDS011;21791;42.828;74.582;2023-03-11T07:55:24;10.48;;;3.28;;
35677;SDS011;21791;42.828;74.582;2023-03-11T07:57:50;14.30;;;3.90;;
35677;SDS011;21791;42.828;74.582;2023-03-11T08:00:17;7.40;;;2.83;;
35677;SDS011;21791;42.828;74.582;2023-03-11T08:02:44;13.27;;;2.85;;
35677;SDS011;21791;42.828;74.582;2023-03-11T08:05:10;9.70;;;3.53;;
35677;SDS011;21791;42.828;74.582;2023-03-11T08:07:38;15.93;;;3.00;;
35677;SDS011;21791;42.828;74.582;2023-03-11T08:10:04;21.45;;;5.68;;
35677;SDS011;21791;42.828;74.582;2023-03-11T08:12:31;38.78;;;5.63;;
35677;SDS011;21791;42.828;74.582;2023-03-11T08:14:57;21.10;;;5.20;;
35677;SDS011;21791;42.828;74.582;2023-03-11T08:17:24;20.52;;;4.55;;
35677;SDS011;21791;42.828;74.582;2023-03-11T08:19:51;11.18;;;3.63;;
35677;SDS011;21791;42.828;74.582;2023-03-11T08:22:17;11.30;;;3.17;;
35677;SDS011;21791;42.828;74.582;2023-03-11T08:24:44;13.13;;;3.20;;
35677;SDS011;21791;42.828;74.582;2023-03-11T08:27:10;8.85;;;3.05;;
35677;SDS011;21791;42.828;74.582;2023-03-11T08:29:37;11.40;;;2.80;;
35677;SDS011;21791;42.828;74.582;2023-03-11T08:32:04;10.52;;;3.00;;
35677;SDS011;21791;42.828;74.582;2023-03-11T08:34:31;12.05;;;3.25;;
35677;SDS011;21791;42.828;74.582;2023-03-11T08:36:59;7.93;;;2.78;;
35677;SDS011;21791;42.828;74.582;2023-03-11T08:39:26;13.15;;;3.00;;
35677;SDS011;21791;42.828;74.582;2023-03-11T08:41:52;14.10;;;2.90;;
35677;SDS011;21791;42.828;74.582;2023-03-11T08:44:19;11.10;;;2.65;;
35677;SDS011;21791;42.828;74.582;2023-03-11T08:46:46;13.95;;;2.67;;
35677;SDS011;21791;42.828;74.582;2023-03-11T08:49:12;7.05;;;2.63;;
35677;SDS011;21791;42.828;74.582;2023-03-11T08:51:39;10.48;;;2.65;;
35677;SDS011;21791;42.828;74.582;2023-03-11T08:54:06;5.25;;;1.73;;
35677;SDS011;21791;42.828;74.582;2023-03-11T08:56:32;9.23;;;3.17;;
35677;SDS011;21791;42.828;74.582;2023-03-11T08:58:59;3.92;;;2.33;;
35677;SDS011;21791;42.828;74.582;2023-03-11T09:01:26;11.13;;;3.05;;
35677;SDS011;21791;42.828;74.582;2023-03-11T09:03:54;9.60;;;2.75;;
35677;SDS011;21791;42.828;74.582;2023-03-11T09:06:21;5.10;;;2.10;;
35677;SDS011;21791;42.828;74.582;2023-03-11T09:08:48;4.63;;;1.90;;
35677;SDS011;21791;42.828;74.582;2023-03-11T09:11:16;8.27;;;2.53;;
35677;SDS011;21791;42.828;74.582;2023-03-11T09:13:43;10.00;;;2.90;;
35677;SDS011;21791;42.828;74.582;2023-03-11T09:16:14;8.57;;;2.60;;
35677;SDS011;21791;42.828;74.582;2023-03-11T09:18:41;11.38;;;3.40;;
35677;SDS011;21791;42.828;74.582;2023-03-11T09:21:08;13.90;;;3.10;;
35677;SDS011;21791;42.828;74.582;2023-03-11T09:23:35;9.80;;;2.65;;
35677;SDS011;21791;42.828;74.582;2023-03-11T09:26:02;8.80;;;3.10;;
35677;SDS011;21791;42.828;74.582;2023-03-11T09:28:29;9.40;;;2.75;;
35677;SDS011;21791;42.828;74.582;2023-03-11T09:30:55;12.02;;;2.90;;
35677;SDS011;21791;42.828;74.582;2023-03-11T09:33:22;7.25;;;2.53;;
35677;SDS011;21791;42.828;74.582;2023-03-11T09:35:48;8.82;;;2.38;;
35677;SDS011;21791;42.828;74.582;2023-03-11T09:38:15;8.35;;;2.53;;
35677;SDS011;21791;42.828;74.582;2023-03-11T09:43:25;9.38;;;2.60;;
35677;SDS011;21791;42.828;74.582;2023-03-11T09:46:05;12.18;;;2.80;;
35677;SDS011;21791;42.828;74.582;2023-03-11T09:49:36;6.68;;;2.00;;
35677;SDS011;21791;42.828;74.582;2023-03-11T09:52:17;8.20;;;2.47;;
35677;SDS011;21791;42.828;74.582;2023-03-11T09:54:52;7.45;;;2.80;;
35677;SDS011;21791;42.828;74.582;2023-03-11T09:57:21;9.32;;;2.20;;
35677;SDS011;21791;42.828;74.582;2023-03-11T09:59:52;8.50;;;3.53;;
35677;SDS011;21791;42.828;74.582;2023-03-11T10:02:21;8.35;;;4.53;;
35677;SDS011;21791;42.828;74.582;2023-03-11T10:07:26;7.38;;;2.20;;
35677;SDS011;21791;42.828;74.582;2023-03-11T10:09:56;13.82;;;6.13;;
35677;SDS011;21791;42.828;74.582;2023-03-11T10:12:27;22.60;;;8.60;;
35677;SDS011;21791;42.828;74.582;2023-03-11T10:15:23;15.73;;;9.15;;
35677;SDS011;21791;42.828;74.582;2023-03-11T10:21:06;15.65;;;7.53;;
35677;SDS011;21791;42.828;74.582;2023-03-11T10:23:59;20.38;;;7.47;;
35677;SDS011;21791;42.828;74.582;2023-03-11T10:26:43;13.43;;;6.70;;
35677;SDS011;21791;42.828;74.582;2023-03-11T10:29:18;17.98;;;6.72;;
35677;SDS011;21791;42.828;74.582;2023-03-11T10:32:16;18.13;;;5.70;;
35677;SDS011;21791;42.828;74.582;2023-03-11T10:37:50;16.75;;;5.72;;
35677;SDS011;21791;42.828;74.582;2023-03-11T10:43:05;12.13;;;5.43;;
35677;SDS011;21791;42.828;74.582;2023-03-11T10:45:41;10.90;;;5.10;;
35677;SDS011;21791;42.828;74.582;2023-03-11T10:48:11;16.00;;;5.85;;
35677;SDS011;21791;42.828;74.582;2023-03-11T10:50:49;16.40;;;5.70;;
35677;SDS011;21791;42.828;74.582;2023-03-11T10:53:24;20.50;;;8.90;;
35677;SDS011;21791;42.828;74.582;2023-03-11T10:55:52;8.40;;;5.22;;
35677;SDS011;21791;42.828;74.582;2023-03-11T10:58:21;17.10;;;7.95;;
35677;SDS011;21791;42.828;74.582;2023-03-11T11:01:03;13.70;;;6.22;;
35677;SDS011;21791;42.828;74.582;2023-03-11T11:03:40;15.30;;;5.10;;
35677;SDS011;21791;42.828;74.582;2023-03-11T11:06:20;13.95;;;5.40;;
35677;SDS011;21791;42.828;74.582;2023-03-11T11:08:47;14.85;;;4.82;;
35677;SDS011;21791;42.828;74.582;2023-03-11T11:11:22;14.95;;;4.22;;
35677;SDS011;21791;42.828;74.582;2023-03-11T11:13:55;10.13;;;4.38;;
35677;SDS011;21791;42.828;74.582;2023-03-11T11:16:23;15.45;;;5.22;;
35677;SDS011;21791;42.828;74.582;2023-03-11T11:18:53;14.63;;;7.35;;
35677;SDS011;21791;42.828;74.582;2023-03-11T11:21:39;14.32;;;8.80;;
35677;SDS011;21791;42.828;74.582;2023-03-11T11:24:26;22.30;;;11.52;;
35677;SDS011;21791;42.828;74.582;2023-03-11T11:29:42;37.30;;;24.02;;
35677;SDS011;21791;42.828;74.582;2023-03-11T11:37:20;54.85;;;31.17;;
35677;SDS011;21791;42.828;74.582;2023-03-11T11:39:51;36.85;;;25.08;;
35677;SDS011;21791;42.828;74.582;2023-03-11T11:42:31;42.90;;;28.63;;
35677;SDS011;21791;42.828;74.582;2023-03-11T11:45:02;38.55;;;25.95;;
35677;SDS011;21791;42.828;74.582;2023-03-11T11:47:48;34.80;;;21.77;;
35677;SDS011;21791;42.828;74.582;2023-03-11T11:50:23;34.47;;;20.08;;
35677;SDS011;21791;42.828;74.582;2023-03-11T11:53:01;29.27;;;17.75;;
35677;SDS011;21791;42.828;74.582;2023-03-11T11:55:48;25.88;;;14.75;;
35677;SDS011;21791;42.828;74.582;2023-03-11T11:58:17;27.13;;;15.35;;
35677;SDS011;21791;42.828;74.582;2023-03-11T12:07:02;18.20;;;9.13;;
35677;SDS011;21791;42.828;74.582;2023-03-11T12:09:38;15.77;;;8.40;;
35677;SDS011;21791;42.828;74.582;2023-03-11T12:12:28;17.48;;;10.45;;
35677;SDS011;21791;42.828;74.582;2023-03-11T12:15:16;17.55;;;10.00;;
35677;SDS011;21791;42.828;74.582;2023-03-11T12:17:46;22.17;;;13.05;;
35677;SDS011;21791;42.828;74.582;2023-03-11T12:20:31;28.05;;;14.27;;
35677;SDS011;21791;42.828;74.582;2023-03-11T12:26:14;40.67;;;25.40;;
35677;SDS011;21791;42.828;74.582;2023-03-11T12:28:49;41.65;;;26.55;;
35677;SDS011;21791;42.828;74.582;2023-03-11T12:31:28;39.95;;;26.02;;
35677;SDS011;21791;42.828;74.582;2023-03-11T12:33:59;37.58;;;22.33;;
35677;SDS011;21791;42.828;74.582;2023-03-11T12:38:57;37.78;;;21.90;;
35677;SDS011;21791;42.828;74.582;2023-03-11T12:41:29;44.53;;;20.23;;
35677;SDS011;21791;42.828;74.582;2023-03-11T12:49:29;34.40;;;20.98;;
35677;SDS011;21791;42.828;74.582;2023-03-11T12:52:04;43.42;;;21.30;;
35677;SDS011;21791;42.828;74.582;2023-03-11T12:54:40;48.55;;;29.27;;
35677;SDS011;21791;42.828;74.582;2023-03-11T13:08:14;73.05;;;41.97;;
35677;SDS011;21791;42.828;74.582;2023-03-11T13:10:50;60.55;;;37.10;;
35677;SDS011;21791;42.828;74.582;2023-03-11T13:18:43;52.58;;;32.55;;
35677;SDS011;21791;42.828;74.582;2023-03-11T13:34:00;50.05;;;27.88;;
35677;SDS011;21791;42.828;74.582;2023-03-11T13:42:23;53.75;;;30.77;;
35677;SDS011;21791;42.828;74.582;2023-03-11T13:44:57;43.60;;;26.92;;
35677;SDS011;21791;42.828;74.582;2023-03-11T13:47:24;45.13;;;25.05;;
35677;SDS011;21791;42.828;74.582;2023-03-11T13:50:08;49.08;;;24.63;;
35677;SDS011;21791;42.828;74.582;2023-03-11T13:52:45;47.15;;;23.75;;
35677;SDS011;21791;42.828;74.582;2023-03-11T13:55:18;44.92;;;22.10;;
35677;SDS011;21791;42.828;74.582;2023-03-11T13:57:50;51.40;;;22.52;;
35677;SDS011;21791;42.828;74.582;2023-03-11T14:00:19;39.35;;;20.45;;
35677;SDS011;21791;42.828;74.582;2023-03-11T14:02:54;39.33;;;21.33;;
35677;SDS011;21791;42.828;74.582;2023-03-11T14:05:23;44.72;;;21.80;;
35677;SDS011;21791;42.828;74.582;2023-03-11T14:10:55;43.42;;;21.25;;
35677;SDS011;21791;42.828;74.582;2023-03-11T14:13:27;37.17;;;18.80;;
35677;SDS011;21791;42.828;74.582;2023-03-11T14:16:12;33.22;;;18.67;;
35677;SDS011;21791;42.828;74.582;2023-03-11T14:18:46;35.08;;;17.83;;
35677;SDS011;21791;42.828;74.582;2023-03-11T14:21:18;32.55;;;17.05;;
35677;SDS011;21791;42.828;74.582;2023-03-11T14:23:47;31.02;;;15.05;;
35677;SDS011;21791;42.828;74.582;2023-03-11T14:26:21;30.95;;;15.30;;
35677;SDS011;21791;42.828;74.582;2023-03-11T14:28:55;29.17;;;15.13;;
35677;SDS011;21791;42.828;74.582;2023-03-11T14:31:28;29.90;;;15.30;;
35677;SDS011;21791;42.828;74.582;2023-03-11T14:34:14;33.60;;;15.13;;
35677;SDS011;21791;42.828;74.582;2023-03-11T14:36:46;27.98;;;13.73;;
35677;SDS011;21791;42.828;74.582;2023-03-11T14:39:26;31.83;;;14.90;;
35677;SDS011;21791;42.828;74.582;2023-03-11T14:45:15;30.70;;;14.80;;
35677;SDS011;21791;42.828;74.582;2023-03-11T14:47:45;29.25;;;14.05;;
35677;SDS011;21791;42.828;74.582;2023-03-11T14:50:20;28.85;;;14.48;;
35677;SDS011;21791;42.828;74.582;2023-03-11T14:55:28;33.17;;;13.65;;
35677;SDS011;21791;42.828;74.582;2023-03-11T14:58:02;26.75;;;13.35;;
35677;SDS011;21791;42.828;74.582;2023-03-11T15:00:34;28.23;;;14.25;;
35677;SDS011;21791;42.828;74.582;2023-03-11T15:03:22;26.13;;;14.32;;
35677;SDS011;21791;42.828;74.582;2023-03-11T15:08:35;36.03;;;15.57;;
35677;SDS011;21791;42.828;74.582;2023-03-11T15:13:38;31.13;;;15.25;;
35677;SDS011;21791;42.828;74.582;2023-03-11T15:16:06;28.27;;;15.25;;
35677;SDS011;21791;42.828;74.582;2023-03-11T15:18:54;25.92;;;14.95;;
35677;SDS011;21791;42.828;74.582;2023-03-11T15:21:22;27.65;;;13.25;;
35677;SDS011;21791;42.828;74.582;2023-03-11T15:23:50;32.25;;;13.85;;
35677;SDS011;21791;42.828;74.582;2023-03-11T15:26:24;26.88;;;13.57;;
35677;SDS011;21791;42.828;74.582;2023-03-11T15:28:54;31.63;;;15.30;;
35677;SDS011;21791;42.828;74.582;2023-03-11T15:31:25;29.70;;;13.65;;
35677;SDS011;21791;42.828;74.582;2023-03-11T15:34:06;26.98;;;12.68;;
35677;SDS011;21791;42.828;74.582;2023-03-11T15:42:02;45.15;;;20.65;;
35677;SDS011;21791;42.828;74.582;2023-03-11T15:44:39;36.92;;;18.88;;
35677;SDS011;21791;42.828;74.582;2023-03-11T15:47:15;37.95;;;16.95;;
35677;SDS011;21791;42.828;74.582;2023-03-11T15:49:44;35.20;;;16.88;;
35677;SDS011;21791;42.828;74.582;2023-03-11T15:52:11;36.60;;;18.25;;
35677;SDS011;21791;42.828;74.582;2023-03-11T15:54:39;31.80;;;17.38;;
35677;SDS011;21791;42.828;74.582;2023-03-11T15:57:06;30.83;;;16.30;;
35677;SDS011;21791;42.828;74.582;2023-03-11T15:59:34;24.55;;;14.45;;
35677;SDS011;21791;42.828;74.582;2023-03-11T16:02:01;25.55;;;12.73;;
35677;SDS011;21791;42.828;74.582;2023-03-11T16:04:27;23.92;;;12.48;;
35677;SDS011;21791;42.828;74.582;2023-03-11T16:06:54;23.83;;;12.57;;
35677;SDS011;21791;42.828;74.582;2023-03-11T16:09:20;25.48;;;12.45;;
35677;SDS011;21791;42.828;74.582;2023-03-11T16:11:47;25.85;;;12.32;;
35677;SDS011;21791;42.828;74.582;2023-03-11T16:14:15;17.02;;;10.52;;
35677;SDS011;21791;42.828;74.582;2023-03-11T16:16:45;17.00;;;10.45;;
35677;SDS011;21791;42.828;74.582;2023-03-11T16:19:12;17.85;;;10.45;;
35677;SDS011;21791;42.828;74.582;2023-03-11T16:21:40;25.17;;;12.85;;